sensor_id;sensor_type;location;lat;lon;timestamp;temperature;humidity
18888;DHT22;9576;47.792;9.628;2023-02-28T00:01:40;-1.30;99.90
18888;DHT22;9576;47.792;9.628;2023-02-28T00:04:42;-1.20;99.90
18888;DHT22;9576;47.792;9.628;2023-02-28T00:07:44;-1.20;99.90
18888;DHT22;9576;47.792;9.628;2023-02-28T00:10:46;-1.20;99.90
18888;DHT22;9576;47.792;9.628;2023-02-28T00:13:48;-1.20;99.90
18888;DHT22;9576;47.792;9.628;2023-02-28T00:16:51;-1.20;99.90
18888;DHT22;9576;47.792;9.628;2023-02-28T00:19:53;-1.20;99.90
18888;DHT22;9576;47.792;9.628;2023-02-28T00:22:55;-1.20;99.90
18888;DHT22;9576;47.792;9.628;2023-02-28T00:25:57;-1.20;99.90
18888;DHT22;9576;47.792;9.628;2023-02-28T00:28:59;-1.20;99.90
18888;DHT22;9576;47.792;9.628;2023-02-28T00:32:03;-1.20;99.90
18888;DHT22;9576;47.792;9.628;2023-02-28T00:35:06;-1.10;99.90
18888;DHT22;9576;47.792;9.628;2023-02-28T00:38:09;-1.10;99.90
18888;DHT22;9576;47.792;9.628;2023-02-28T00:41:11;-1.10;99.90
18888;DHT22;9576;47.792;9.628;2023-02-28T00:44:13;-1.10;99.90
18888;DHT22;9576;47.792;9.628;2023-02-28T00:47:16;-1.20;99.90
18888;DHT22;9576;47.792;9.628;2023-02-28T00:50:18;-1.20;99.90
18888;DHT22;9576;47.792;9.628;2023-02-28T00:53:21;-1.30;99.90
18888;DHT22;9576;47.792;9.628;2023-02-28T00:56:23;-1.30;99.90
18888;DHT22;9576;47.792;9.628;2023-02-28T00:59:25;-1.20;99.90
18888;DHT22;9576;47.792;9.628;2023-02-28T01:02:28;-1.30;99.90
18888;DHT22;9576;47.792;9.628;2023-02-28T01:05:30;-1.30;99.90
18888;DHT22;9576;47.792;9.628;2023-02-28T01:08:32;-1.30;99.90
18888;DHT22;9576;47.792;9.628;2023-02-28T01:11:34;-1.30;99.90
18888;DHT22;9576;47.792;9.628;2023-02-28T01:14:36;-1.30;99.90
18888;DHT22;9576;47.792;9.628;2023-02-28T01:17:39;-1.30;99.90
18888;DHT22;9576;47.792;9.628;2023-02-28T01:20:41;-1.30;99.90
18888;DHT22;9576;47.792;9.628;2023-02-28T01:23:43;-1.30;99.90
18888;DHT22;9576;47.792;9.628;2023-02-28T01:26:45;-1.20;99.90
18888;DHT22;9576;47.792;9.628;2023-02-28T01:29:47;-1.20;99.90
18888;DHT22;9576;47.792;9.628;2023-02-28T01:32:50;-1.20;99.90
18888;DHT22;9576;47.792;9.628;2023-02-28T01:35:58;-1.20;99.90
18888;DHT22;9576;47.792;9.628;2023-02-28T01:39:00;-1.20;99.90
18888;DHT22;9576;47.792;9.628;2023-02-28T01:42:02;-1.20;99.90
18888;DHT22;9576;47.792;9.628;2023-02-28T01:45:15;-1.30;99.90
18888;DHT22;9576;47.792;9.628;2023-02-28T01:48:23;-1.30;99.90
18888;DHT22;9576;47.792;9.628;2023-02-28T01:51:29;-1.20;99.90
18888;DHT22;9576;47.792;9.628;2023-02-28T01:54:34;-1.20;99.90
18888;DHT22;9576;47.792;9.628;2023-02-28T01:57:39;-1.20;99.90
18888;DHT22;9576;47.792;9.628;2023-02-28T02:00:42;-1.20;99.90
18888;DHT22;9576;47.792;9.628;2023-02-28T02:03:45;-1.20;99.90
18888;DHT22;9576;47.792;9.628;2023-02-28T02:06:48;-1.20;99.90
18888;DHT22;9576;47.792;9.628;2023-02-28T02:09:50;-1.20;99.90
18888;DHT22;9576;47.792;9.628;2023-02-28T02:13:17;-1.30;99.90
18888;DHT22;9576;47.792;9.628;2023-02-28T02:16:33;-1.30;99.90
18888;DHT22;9576;47.792;9.628;2023-02-28T02:20:10;-1.30;99.90
18888;DHT22;9576;47.792;9.628;2023-02-28T02:23:53;-1.20;99.90
18888;DHT22;9576;47.792;9.628;2023-02-28T02:27:20;-1.30;99.90
18888;DHT22;9576;47.792;9.628;2023-02-28T02:34:39;-1.30;99.90
18888;DHT22;9576;47.792;9.628;2023-02-28T02:37:45;-1.30;99.90
18888;DHT22;9576;47.792;9.628;2023-02-28T02:40:55;-1.30;99.90
18888;DHT22;9576;47.792;9.628;2023-02-28T02:44:02;-1.30;99.90
18888;DHT22;9576;47.792;9.628;2023-02-28T02:47:08;-1.30;99.90
18888;DHT22;9576;47.792;9.628;2023-02-28T02:50:16;-1.30;99.90
18888;DHT22;9576;47.792;9.628;2023-02-28T02:53:24;-1.30;99.90
18888;DHT22;9576;47.792;9.628;2023-02-28T02:56:30;-1.30;99.90
18888;DHT22;9576;47.792;9.628;2023-02-28T02:59:33;-1.30;99.90
18888;DHT22;9576;47.792;9.628;2023-02-28T03:02:38;-1.30;99.90
18888;DHT22;9576;47.792;9.628;2023-02-28T03:05:47;-1.30;99.90
18888;DHT22;9576;47.792;9.628;2023-02-28T03:08:49;-1.30;99.90
18888;DHT22;9576;47.792;9.628;2023-02-28T03:11:53;-1.30;99.90
18888;DHT22;9576;47.792;9.628;2023-02-28T03:14:58;-1.30;99.90
18888;DHT22;9576;47.792;9.628;2023-02-28T03:18:09;-1.30;99.90
18888;DHT22;9576;47.792;9.628;2023-02-28T03:21:18;-1.30;99.90
18888;DHT22;9576;47.792;9.628;2023-02-28T03:24:29;-1.40;99.90
18888;DHT22;9576;47.792;9.628;2023-02-28T03:27:38;-1.40;99.90
18888;DHT22;9576;47.792;9.628;2023-02-28T03:30:45;-1.40;99.90
18888;DHT22;9576;47.792;9.628;2023-02-28T03:33:54;-1.50;99.90
18888;DHT22;9576;47.792;9.628;2023-02-28T03:37:02;-1.50;99.90
18888;DHT22;9576;47.792;9.628;2023-02-28T03:40:08;-1.50;99.90
18888;DHT22;9576;47.792;9.628;2023-02-28T03:43:16;-1.60;99.90
18888;DHT22;9576;47.792;9.628;2023-02-28T03:46:22;-1.50;99.90
18888;DHT22;9576;47.792;9.628;2023-02-28T03:49:29;-1.50;99.90
18888;DHT22;9576;47.792;9.628;2023-02-28T03:52:36;-1.40;99.90
18888;DHT22;9576;47.792;9.628;2023-02-28T03:55:44;-1.40;99.90
18888;DHT22;9576;47.792;9.628;2023-02-28T03:58:51;-1.40;99.90
18888;DHT22;9576;47.792;9.628;2023-02-28T04:01:57;-1.50;99.90
18888;DHT22;9576;47.792;9.628;2023-02-28T04:04:59;-1.40;99.90
18888;DHT22;9576;47.792;9.628;2023-02-28T04:08:07;-1.40;99.90
18888;DHT22;9576;47.792;9.628;2023-02-28T04:11:20;-1.40;99.90
18888;DHT22;9576;47.792;9.628;2023-02-28T04:14:23;-1.40;99.90
18888;DHT22;9576;47.792;9.628;2023-02-28T04:17:25;-1.30;99.90
18888;DHT22;9576;47.792;9.628;2023-02-28T04:20:27;-1.30;99.90
18888;DHT22;9576;47.792;9.628;2023-02-28T04:23:31;-1.40;99.90
18888;DHT22;9576;47.792;9.628;2023-02-28T04:26:34;-1.50;99.90
18888;DHT22;9576;47.792;9.628;2023-02-28T04:29:36;-1.50;99.90
18888;DHT22;9576;47.792;9.628;2023-02-28T04:32:38;-1.60;99.90
18888;DHT22;9576;47.792;9.628;2023-02-28T04:35:40;-1.60;99.90
18888;DHT22;9576;47.792;9.628;2023-02-28T04:38:44;-1.50;99.90
18888;DHT22;9576;47.792;9.628;2023-02-28T04:41:46;-1.50;99.90
18888;DHT22;9576;47.792;9.628;2023-02-28T04:44:48;-1.50;99.90
18888;DHT22;9576;47.792;9.628;2023-02-28T04:47:50;-1.60;99.90
18888;DHT22;9576;47.792;9.628;2023-02-28T04:50:52;-1.50;99.90
18888;DHT22;9576;47.792;9.628;2023-02-28T04:53:55;-1.50;99.90
18888;DHT22;9576;47.792;9.628;2023-02-28T04:56:57;-1.50;99.90
18888;DHT22;9576;47.792;9.628;2023-02-28T04:59:59;-1.30;99.90
18888;DHT22;9576;47.792;9.628;2023-02-28T05:03:01;-1.30;99.90
18888;DHT22;9576;47.792;9.628;2023-02-28T05:06:03;-1.40;99.90
18888;DHT22;9576;47.792;9.628;2023-02-28T05:09:07;-1.40;99.90
18888;DHT22;9576;47.792;9.628;2023-02-28T05:12:11;-1.40;99.90
18888;DHT22;9576;47.792;9.628;2023-02-28T05:15:15;-1.30;99.90
18888;DHT22;9576;47.792;9.628;2023-02-28T05:18:17;-1.30;99.90
18888;DHT22;9576;47.792;9.628;2023-02-28T05:21:30;-1.40;99.90
18888;DHT22;9576;47.792;9.628;2023-02-28T05:24:34;-1.30;99.90
18888;DHT22;9576;47.792;9.628;2023-02-28T05:27:35;-1.40;99.90
18888;DHT22;9576;47.792;9.628;2023-02-28T05:30:37;-1.50;99.90
18888;DHT22;9576;47.792;9.628;2023-02-28T05:33:39;-1.50;99.90
18888;DHT22;9576;47.792;9.628;2023-02-28T05:36:41;-1.60;99.90
18888;DHT22;9576;47.792;9.628;2023-02-28T05:39:45;-1.60;99.90
18888;DHT22;9576;47.792;9.628;2023-02-28T05:42:47;-1.70;99.90
18888;DHT22;9576;47.792;9.628;2023-02-28T05:45:49;-1.60;99.90
18888;DHT22;9576;47.792;9.628;2023-02-28T05:48:51;-1.60;99.90
18888;DHT22;9576;47.792;9.628;2023-02-28T05:51:52;-1.70;99.90
18888;DHT22;9576;47.792;9.628;2023-02-28T05:54:56;-1.70;99.90
18888;DHT22;9576;47.792;9.628;2023-02-28T05:57:58;-1.70;99.90
18888;DHT22;9576;47.792;9.628;2023-02-28T06:01:19;-1.70;99.90
18888;DHT22;9576;47.792;9.628;2023-02-28T06:04:21;-1.80;99.90
18888;DHT22;9576;47.792;9.628;2023-02-28T06:07:23;-1.80;99.90
18888;DHT22;9576;47.792;9.628;2023-02-28T06:10:26;-1.70;99.90
18888;DHT22;9576;47.792;9.628;2023-02-28T06:13:28;-1.70;99.90
18888;DHT22;9576;47.792;9.628;2023-02-28T06:16:32;-1.70;99.90
18888;DHT22;9576;47.792;9.628;2023-02-28T06:19:34;-1.60;99.90
18888;DHT22;9576;47.792;9.628;2023-02-28T06:22:39;-1.70;99.90
18888;DHT22;9576;47.792;9.628;2023-02-28T06:25:46;-1.70;99.90
18888;DHT22;9576;47.792;9.628;2023-02-28T06:28:48;-1.70;99.90
18888;DHT22;9576;47.792;9.628;2023-02-28T06:31:50;-1.70;99.90
18888;DHT22;9576;47.792;9.628;2023-02-28T06:34:52;-1.70;99.90
18888;DHT22;9576;47.792;9.628;2023-02-28T06:37:54;-1.60;99.90
18888;DHT22;9576;47.792;9.628;2023-02-28T06:40:59;-1.60;99.90
18888;DHT22;9576;47.792;9.628;2023-02-28T06:44:01;-1.60;99.90
18888;DHT22;9576;47.792;9.628;2023-02-28T06:47:04;-1.60;99.90
18888;DHT22;9576;47.792;9.628;2023-02-28T06:50:07;-1.60;99.90
18888;DHT22;9576;47.792;9.628;2023-02-28T06:53:09;-1.50;99.90
18888;DHT22;9576;47.792;9.628;2023-02-28T06:56:14;-1.40;99.90
18888;DHT22;9576;47.792;9.628;2023-02-28T06:59:17;-1.40;99.90
18888;DHT22;9576;47.792;9.628;2023-02-28T07:02:19;-1.30;99.90
18888;DHT22;9576;47.792;9.628;2023-02-28T07:05:21;-1.20;99.90
18888;DHT22;9576;47.792;9.628;2023-02-28T07:08:23;-1.20;99.90
18888;DHT22;9576;47.792;9.628;2023-02-28T07:11:27;-1.20;99.90
18888;DHT22;9576;47.792;9.628;2023-02-28T07:14:29;-1.20;99.90
18888;DHT22;9576;47.792;9.628;2023-02-28T07:17:31;-1.20;99.90
18888;DHT22;9576;47.792;9.628;2023-02-28T07:20:33;-1.10;99.90
18888;DHT22;9576;47.792;9.628;2023-02-28T07:23:36;-1.10;99.90
18888;DHT22;9576;47.792;9.628;2023-02-28T07:26:40;-1.00;99.90
18888;DHT22;9576;47.792;9.628;2023-02-28T07:29:42;-1.10;99.90
18888;DHT22;9576;47.792;9.628;2023-02-28T07:32:44;-1.10;99.90
18888;DHT22;9576;47.792;9.628;2023-02-28T07:35:46;-1.10;99.90
18888;DHT22;9576;47.792;9.628;2023-02-28T07:38:49;-1.10;99.90
18888;DHT22;9576;47.792;9.628;2023-02-28T07:41:53;-1.20;99.90
18888;DHT22;9576;47.792;9.628;2023-02-28T07:44:54;-1.10;99.90
18888;DHT22;9576;47.792;9.628;2023-02-28T07:47:56;-1.10;99.90
18888;DHT22;9576;47.792;9.628;2023-02-28T07:50:59;-1.10;99.90
18888;DHT22;9576;47.792;9.628;2023-02-28T07:54:01;-1.10;99.90
18888;DHT22;9576;47.792;9.628;2023-02-28T07:57:04;-1.00;99.90
18888;DHT22;9576;47.792;9.628;2023-02-28T08:00:10;-0.90;99.90
18888;DHT22;9576;47.792;9.628;2023-02-28T08:03:13;-0.90;99.90
18888;DHT22;9576;47.792;9.628;2023-02-28T08:06:17;-1.00;99.90
18888;DHT22;9576;47.792;9.628;2023-02-28T08:09:19;-0.80;99.90
18888;DHT22;9576;47.792;9.628;2023-02-28T08:12:23;-0.60;99.90
18888;DHT22;9576;47.792;9.628;2023-02-28T08:15:24;-0.60;99.90
18888;DHT22;9576;47.792;9.628;2023-02-28T08:18:26;-0.60;99.90
18888;DHT22;9576;47.792;9.628;2023-02-28T08:21:28;-0.70;99.90
18888;DHT22;9576;47.792;9.628;2023-02-28T08:24:30;-0.70;99.90
18888;DHT22;9576;47.792;9.628;2023-02-28T08:27:35;-0.70;99.90
18888;DHT22;9576;47.792;9.628;2023-02-28T08:30:37;-0.60;99.90
18888;DHT22;9576;47.792;9.628;2023-02-28T08:33:42;-0.60;99.90
18888;DHT22;9576;47.792;9.628;2023-02-28T08:36:45;-0.50;99.90
18888;DHT22;9576;47.792;9.628;2023-02-28T08:39:47;-0.50;99.90
18888;DHT22;9576;47.792;9.628;2023-02-28T08:42:50;-0.50;99.90
18888;DHT22;9576;47.792;9.628;2023-02-28T08:45:52;-0.30;99.90
18888;DHT22;9576;47.792;9.628;2023-02-28T08:48:55;-0.30;99.90
18888;DHT22;9576;47.792;9.628;2023-02-28T08:51:59;-0.20;99.90
18888;DHT22;9576;47.792;9.628;2023-02-28T08:55:01;-0.20;99.90
18888;DHT22;9576;47.792;9.628;2023-02-28T08:58:05;-0.20;99.90
18888;DHT22;9576;47.792;9.628;2023-02-28T09:01:11;0.00;99.90
18888;DHT22;9576;47.792;9.628;2023-02-28T09:04:13;0.10;99.90
18888;DHT22;9576;47.792;9.628;2023-02-28T09:07:15;0.00;99.90
18888;DHT22;9576;47.792;9.628;2023-02-28T09:10:17;0.10;99.90
18888;DHT22;9576;47.792;9.628;2023-02-28T09:13:20;0.00;99.90
18888;DHT22;9576;47.792;9.628;2023-02-28T09:16:22;0.00;99.90
18888;DHT22;9576;47.792;9.628;2023-02-28T09:19:25;-0.10;99.90
18888;DHT22;9576;47.792;9.628;2023-02-28T09:22:26;0.00;99.90
18888;DHT22;9576;47.792;9.628;2023-02-28T09:25:28;-0.10;99.90
18888;DHT22;9576;47.792;9.628;2023-02-28T09:28:32;-0.10;99.90
18888;DHT22;9576;47.792;9.628;2023-02-28T09:31:34;-0.20;99.90
18888;DHT22;9576;47.792;9.628;2023-02-28T09:34:35;0.00;99.90
18888;DHT22;9576;47.792;9.628;2023-02-28T09:37:43;0.10;99.90
18888;DHT22;9576;47.792;9.628;2023-02-28T09:40:49;0.10;99.90
18888;DHT22;9576;47.792;9.628;2023-02-28T09:43:56;0.10;99.90
18888;DHT22;9576;47.792;9.628;2023-02-28T09:47:01;0.30;99.90
18888;DHT22;9576;47.792;9.628;2023-02-28T09:50:16;0.50;99.90
18888;DHT22;9576;47.792;9.628;2023-02-28T09:53:22;0.50;99.90
18888;DHT22;9576;47.792;9.628;2023-02-28T09:56:33;0.40;99.90
18888;DHT22;9576;47.792;9.628;2023-02-28T09:59:56;0.50;99.90
18888;DHT22;9576;47.792;9.628;2023-02-28T10:06:41;0.90;99.90
18888;DHT22;9576;47.792;9.628;2023-02-28T10:09:47;1.10;99.90
18888;DHT22;9576;47.792;9.628;2023-02-28T10:12:53;1.30;99.90
18888;DHT22;9576;47.792;9.628;2023-02-28T10:16:01;1.30;99.90
18888;DHT22;9576;47.792;9.628;2023-02-28T10:19:06;1.20;99.90
18888;DHT22;9576;47.792;9.628;2023-02-28T10:22:13;1.40;99.90
18888;DHT22;9576;47.792;9.628;2023-02-28T10:25:20;1.40;99.90
18888;DHT22;9576;47.792;9.628;2023-02-28T10:28:25;1.50;99.90
18888;DHT22;9576;47.792;9.628;2023-02-28T10:31:29;1.70;99.90
18888;DHT22;9576;47.792;9.628;2023-02-28T10:34:31;1.80;99.90
18888;DHT22;9576;47.792;9.628;2023-02-28T10:37:33;1.80;99.90
18888;DHT22;9576;47.792;9.628;2023-02-28T10:40:38;1.80;99.90
18888;DHT22;9576;47.792;9.628;2023-02-28T10:43:42;1.90;99.90
18888;DHT22;9576;47.792;9.628;2023-02-28T10:46:46;1.60;99.90
18888;DHT22;9576;47.792;9.628;2023-02-28T10:49:49;1.70;99.90
18888;DHT22;9576;47.792;9.628;2023-02-28T10:52:53;1.70;99.90
18888;DHT22;9576;47.792;9.628;2023-02-28T10:55:57;1.80;99.90
18888;DHT22;9576;47.792;9.628;2023-02-28T10:59:01;1.70;99.90
18888;DHT22;9576;47.792;9.628;2023-02-28T11:02:31;1.60;99.90
18888;DHT22;9576;47.792;9.628;2023-02-28T11:05:35;1.40;99.90
18888;DHT22;9576;47.792;9.628;2023-02-28T11:08:44;1.40;99.90
18888;DHT22;9576;47.792;9.628;2023-02-28T11:11:47;1.50;99.90
18888;DHT22;9576;47.792;9.628;2023-02-28T11:14:52;1.80;99.90
18888;DHT22;9576;47.792;9.628;2023-02-28T11:17:56;1.90;99.90
18888;DHT22;9576;47.792;9.628;2023-02-28T11:21:00;1.80;99.90
18888;DHT22;9576;47.792;9.628;2023-02-28T11:24:05;2.00;99.90
18888;DHT22;9576;47.792;9.628;2023-02-28T11:27:26;2.20;99.90
18888;DHT22;9576;47.792;9.628;2023-02-28T11:30:37;2.30;99.90
18888;DHT22;9576;47.792;9.628;2023-02-28T11:33:43;2.30;99.90
18888;DHT22;9576;47.792;9.628;2023-02-28T11:36:45;2.30;99.90
18888;DHT22;9576;47.792;9.628;2023-02-28T11:39:47;2.30;99.90
18888;DHT22;9576;47.792;9.628;2023-02-28T11:42:57;2.30;99.90
18888;DHT22;9576;47.792;9.628;2023-02-28T11:46:11;2.20;99.90
18888;DHT22;9576;47.792;9.628;2023-02-28T11:49:30;2.10;99.90
18888;DHT22;9576;47.792;9.628;2023-02-28T11:52:39;2.10;99.90
18888;DHT22;9576;47.792;9.628;2023-02-28T11:55:48;2.00;99.90
18888;DHT22;9576;47.792;9.628;2023-02-28T11:58:59;2.10;99.90
18888;DHT22;9576;47.792;9.628;2023-02-28T12:02:18;2.30;99.90
18888;DHT22;9576;47.792;9.628;2023-02-28T12:05:29;2.20;99.90
18888;DHT22;9576;47.792;9.628;2023-02-28T12:08:44;2.00;99.90
18888;DHT22;9576;47.792;9.628;2023-02-28T12:11:51;1.90;99.90
18888;DHT22;9576;47.792;9.628;2023-02-28T12:15:21;2.00;99.90
18888;DHT22;9576;47.792;9.628;2023-02-28T12:18:37;2.30;99.90
18888;DHT22;9576;47.792;9.628;2023-02-28T12:21:53;2.60;99.90
18888;DHT22;9576;47.792;9.628;2023-02-28T12:28:49;2.40;99.90
18888;DHT22;9576;47.792;9.628;2023-02-28T12:31:55;2.40;99.90
18888;DHT22;9576;47.792;9.628;2023-02-28T12:35:01;2.50;99.90
18888;DHT22;9576;47.792;9.628;2023-02-28T12:38:10;2.40;99.90
18888;DHT22;9576;47.792;9.628;2023-02-28T12:41:16;2.30;99.90
18888;DHT22;9576;47.792;9.628;2023-02-28T12:44:23;2.20;99.90
18888;DHT22;9576;47.792;9.628;2023-02-28T12:47:27;2.20;99.90
18888;DHT22;9576;47.792;9.628;2023-02-28T12:50:29;2.10;99.90
18888;DHT22;9576;47.792;9.628;2023-02-28T12:53:45;2.20;99.90
18888;DHT22;9576;47.792;9.628;2023-02-28T12:56:53;2.40;99.90
18888;DHT22;9576;47.792;9.628;2023-02-28T12:59:59;2.50;99.90
18888;DHT22;9576;47.792;9.628;2023-02-28T13:03:19;2.70;99.90
18888;DHT22;9576;47.792;9.628;2023-02-28T13:06:42;2.70;99.90
18888;DHT22;9576;47.792;9.628;2023-02-28T13:09:53;2.50;99.90
18888;DHT22;9576;47.792;9.628;2023-02-28T13:12:56;2.30;99.90
18888;DHT22;9576;47.792;9.628;2023-02-28T13:16:00;2.40;99.90
18888;DHT22;9576;47.792;9.628;2023-02-28T13:19:11;2.30;99.90
18888;DHT22;9576;47.792;9.628;2023-02-28T13:22:18;2.30;99.90
18888;DHT22;9576;47.792;9.628;2023-02-28T13:25:52;2.40;99.90
18888;DHT22;9576;47.792;9.628;2023-02-28T13:29:01;2.30;99.90
18888;DHT22;9576;47.792;9.628;2023-02-28T13:32:35;2.50;99.90
18888;DHT22;9576;47.792;9.628;2023-02-28T13:35:46;2.80;99.90
18888;DHT22;9576;47.792;9.628;2023-02-28T13:38:48;3.00;99.90
18888;DHT22;9576;47.792;9.628;2023-02-28T13:41:53;3.20;99.90
18888;DHT22;9576;47.792;9.628;2023-02-28T13:45:24;3.10;99.90
18888;DHT22;9576;47.792;9.628;2023-02-28T13:48:27;3.10;99.90
18888;DHT22;9576;47.792;9.628;2023-02-28T13:51:43;2.90;99.90
18888;DHT22;9576;47.792;9.628;2023-02-28T13:55:03;2.60;99.90
18888;DHT22;9576;47.792;9.628;2023-02-28T13:58:33;2.60;99.90
18888;DHT22;9576;47.792;9.628;2023-02-28T14:05:02;2.50;99.90
18888;DHT22;9576;47.792;9.628;2023-02-28T14:08:11;2.50;99.90
18888;DHT22;9576;47.792;9.628;2023-02-28T14:11:29;2.50;99.90
18888;DHT22;9576;47.792;9.628;2023-02-28T14:14:55;2.40;99.90
18888;DHT22;9576;47.792;9.628;2023-02-28T14:18:01;2.20;99.90
18888;DHT22;9576;47.792;9.628;2023-02-28T14:21:11;2.30;99.90
18888;DHT22;9576;47.792;9.628;2023-02-28T14:24:48;2.40;99.90
18888;DHT22;9576;47.792;9.628;2023-02-28T14:28:00;2.30;99.90
18888;DHT22;9576;47.792;9.628;2023-02-28T14:31:09;2.30;99.90
18888;DHT22;9576;47.792;9.628;2023-02-28T14:34:25;2.30;99.90
18888;DHT22;9576;47.792;9.628;2023-02-28T14:37:33;2.40;99.90
18888;DHT22;9576;47.792;9.628;2023-02-28T14:40:39;2.50;99.90
18888;DHT22;9576;47.792;9.628;2023-02-28T14:43:49;2.30;99.90
18888;DHT22;9576;47.792;9.628;2023-02-28T14:46:54;2.20;99.90
18888;DHT22;9576;47.792;9.628;2023-02-28T14:49:57;2.10;99.90
18888;DHT22;9576;47.792;9.628;2023-02-28T14:53:00;1.90;99.90
18888;DHT22;9576;47.792;9.628;2023-02-28T14:56:03;1.70;99.90
18888;DHT22;9576;47.792;9.628;2023-02-28T14:59:26;1.60;99.90
18888;DHT22;9576;47.792;9.628;2023-02-28T15:02:33;1.60;99.90
18888;DHT22;9576;47.792;9.628;2023-02-28T15:05:36;1.60;99.90
18888;DHT22;9576;47.792;9.628;2023-02-28T15:08:38;1.60;99.90
18888;DHT22;9576;47.792;9.628;2023-02-28T15:11:40;1.40;99.90
18888;DHT22;9576;47.792;9.628;2023-02-28T15:14:43;1.40;99.90
18888;DHT22;9576;47.792;9.628;2023-02-28T15:17:49;1.50;99.90
18888;DHT22;9576;47.792;9.628;2023-02-28T15:20:54;1.60;99.90
18888;DHT22;9576;47.792;9.628;2023-02-28T15:23:59;1.60;99.90
18888;DHT22;9576;47.792;9.628;2023-02-28T15:27:07;1.60;99.90
18888;DHT22;9576;47.792;9.628;2023-02-28T15:30:17;1.70;99.90
18888;DHT22;9576;47.792;9.628;2023-02-28T15:33:23;1.80;99.90
18888;DHT22;9576;47.792;9.628;2023-02-28T15:36:28;1.80;99.90
18888;DHT22;9576;47.792;9.628;2023-02-28T15:39:42;1.90;99.90
18888;DHT22;9576;47.792;9.628;2023-02-28T15:43:07;2.00;99.90
18888;DHT22;9576;47.792;9.628;2023-02-28T15:46:14;2.10;99.90
18888;DHT22;9576;47.792;9.628;2023-02-28T15:49:20;2.20;99.90
18888;DHT22;9576;47.792;9.628;2023-02-28T15:52:27;2.70;99.90
18888;DHT22;9576;47.792;9.628;2023-02-28T15:55:32;3.10;99.90
18888;DHT22;9576;47.792;9.628;2023-02-28T15:58:35;3.00;99.90
18888;DHT22;9576;47.792;9.628;2023-02-28T16:01:38;2.80;99.90
18888;DHT22;9576;47.792;9.628;2023-02-28T16:08:14;2.60;99.90
18888;DHT22;9576;47.792;9.628;2023-02-28T16:11:16;2.20;99.90
18888;DHT22;9576;47.792;9.628;2023-02-28T16:14:20;2.40;99.90
18888;DHT22;9576;47.792;9.628;2023-02-28T16:17:25;2.70;99.90
18888;DHT22;9576;47.792;9.628;2023-02-28T16:20:29;2.60;99.90
18888;DHT22;9576;47.792;9.628;2023-02-28T16:23:33;2.50;99.90
18888;DHT22;9576;47.792;9.628;2023-02-28T16:26:35;2.50;99.90
18888;DHT22;9576;47.792;9.628;2023-02-28T16:29:39;2.30;99.90
18888;DHT22;9576;47.792;9.628;2023-02-28T16:32:42;2.10;99.90
18888;DHT22;9576;47.792;9.628;2023-02-28T16:35:44;2.00;99.90
18888;DHT22;9576;47.792;9.628;2023-02-28T16:38:47;2.10;99.90
18888;DHT22;9576;47.792;9.628;2023-02-28T16:41:50;2.00;99.90
18888;DHT22;9576;47.792;9.628;2023-02-28T16:44:53;1.80;99.90
18888;DHT22;9576;47.792;9.628;2023-02-28T16:47:55;1.60;99.90
18888;DHT22;9576;47.792;9.628;2023-02-28T16:50:58;1.40;99.90
18888;DHT22;9576;47.792;9.628;2023-02-28T16:54:01;1.20;99.90
18888;DHT22;9576;47.792;9.628;2023-02-28T16:57:03;1.00;99.90
18888;DHT22;9576;47.792;9.628;2023-02-28T17:00:08;0.80;99.90
18888;DHT22;9576;47.792;9.628;2023-02-28T17:03:21;0.70;99.90
18888;DHT22;9576;47.792;9.628;2023-02-28T17:06:25;0.50;99.90
18888;DHT22;9576;47.792;9.628;2023-02-28T17:09:29;0.50;99.90
18888;DHT22;9576;47.792;9.628;2023-02-28T17:12:31;0.60;99.90
18888;DHT22;9576;47.792;9.628;2023-02-28T17:15:33;0.60;99.90
18888;DHT22;9576;47.792;9.628;2023-02-28T17:18:35;0.60;99.90
18888;DHT22;9576;47.792;9.628;2023-02-28T17:21:40;0.60;99.90
18888;DHT22;9576;47.792;9.628;2023-02-28T17:24:44;0.50;99.90
18888;DHT22;9576;47.792;9.628;2023-02-28T17:27:47;0.40;99.90
18888;DHT22;9576;47.792;9.628;2023-02-28T17:30:49;0.50;99.90
18888;DHT22;9576;47.792;9.628;2023-02-28T17:33:51;0.40;99.90
18888;DHT22;9576;47.792;9.628;2023-02-28T17:36:53;0.30;99.90
18888;DHT22;9576;47.792;9.628;2023-02-28T17:39:56;0.20;99.90
18888;DHT22;9576;47.792;9.628;2023-02-28T17:42:58;0.10;99.90
18888;DHT22;9576;47.792;9.628;2023-02-28T17:46:00;0.10;99.90
18888;DHT22;9576;47.792;9.628;2023-02-28T17:49:02;0.10;99.90
18888;DHT22;9576;47.792;9.628;2023-02-28T17:52:04;0.00;99.90
18888;DHT22;9576;47.792;9.628;2023-02-28T17:55:09;0.00;99.90
18888;DHT22;9576;47.792;9.628;2023-02-28T17:58:11;0.00;99.90
18888;DHT22;9576;47.792;9.628;2023-02-28T18:01:14;0.00;99.90
18888;DHT22;9576;47.792;9.628;2023-02-28T18:04:16;0.00;99.90
18888;DHT22;9576;47.792;9.628;2023-02-28T18:07:19;0.10;99.90
18888;DHT22;9576;47.792;9.628;2023-02-28T18:10:23;0.10;99.90
18888;DHT22;9576;47.792;9.628;2023-02-28T18:13:25;0.00;99.90
18888;DHT22;9576;47.792;9.628;2023-02-28T18:16:28;0.10;99.90
18888;DHT22;9576;47.792;9.628;2023-02-28T18:19:30;0.10;99.90
18888;DHT22;9576;47.792;9.628;2023-02-28T18:22:32;0.10;99.90
18888;DHT22;9576;47.792;9.628;2023-02-28T18:25:35;0.00;99.90
18888;DHT22;9576;47.792;9.628;2023-02-28T18:28:38;-0.10;99.90
18888;DHT22;9576;47.792;9.628;2023-02-28T18:31:42;-0.20;99.90
18888;DHT22;9576;47.792;9.628;2023-02-28T18:34:43;-0.20;99.90
18888;DHT22;9576;47.792;9.628;2023-02-28T18:37:45;-0.20;99.90
18888;DHT22;9576;47.792;9.628;2023-02-28T18:40:53;-0.20;99.90
18888;DHT22;9576;47.792;9.628;2023-02-28T18:43:56;-0.30;99.90
18888;DHT22;9576;47.792;9.628;2023-02-28T18:46:57;-0.40;99.90
18888;DHT22;9576;47.792;9.628;2023-02-28T18:49:59;-0.40;99.90
18888;DHT22;9576;47.792;9.628;2023-02-28T18:53:01;-0.50;99.90
18888;DHT22;9576;47.792;9.628;2023-02-28T18:56:06;-0.50;99.90
18888;DHT22;9576;47.792;9.628;2023-02-28T18:59:08;-0.70;99.90
18888;DHT22;9576;47.792;9.628;2023-02-28T19:02:10;-0.80;99.90
18888;DHT22;9576;47.792;9.628;2023-02-28T19:05:12;-0.80;99.90
18888;DHT22;9576;47.792;9.628;2023-02-28T19:08:14;-0.80;99.90
18888;DHT22;9576;47.792;9.628;2023-02-28T19:11:18;-0.80;99.90
18888;DHT22;9576;47.792;9.628;2023-02-28T19:14:20;-0.80;99.90
18888;DHT22;9576;47.792;9.628;2023-02-28T19:17:22;-0.80;99.90
18888;DHT22;9576;47.792;9.628;2023-02-28T19:20:24;-0.80;99.90
18888;DHT22;9576;47.792;9.628;2023-02-28T19:23:26;-0.80;99.90
18888;DHT22;9576;47.792;9.628;2023-02-28T19:26:30;-0.90;99.90
18888;DHT22;9576;47.792;9.628;2023-02-28T19:29:32;-0.90;99.90
18888;DHT22;9576;47.792;9.628;2023-02-28T19:32:34;-0.90;99.90
18888;DHT22;9576;47.792;9.628;2023-02-28T19:35:35;-0.90;99.90
18888;DHT22;9576;47.792;9.628;2023-02-28T19:38:40;-1.00;99.90
18888;DHT22;9576;47.792;9.628;2023-02-28T19:41:45;-0.90;99.90
18888;DHT22;9576;47.792;9.628;2023-02-28T19:44:47;-0.90;99.90
18888;DHT22;9576;47.792;9.628;2023-02-28T19:47:49;-1.00;99.90
18888;DHT22;9576;47.792;9.628;2023-02-28T19:50:54;-1.10;99.90
18888;DHT22;9576;47.792;9.628;2023-02-28T19:53:56;-1.00;99.90
18888;DHT22;9576;47.792;9.628;2023-02-28T19:57:00;-1.10;99.90
18888;DHT22;9576;47.792;9.628;2023-02-28T20:00:02;-1.10;99.90
18888;DHT22;9576;47.792;9.628;2023-02-28T20:03:04;-1.20;99.90
18888;DHT22;9576;47.792;9.628;2023-02-28T20:06:09;-1.20;99.90
18888;DHT22;9576;47.792;9.628;2023-02-28T20:09:13;-1.10;99.90
18888;DHT22;9576;47.792;9.628;2023-02-28T20:12:17;-1.20;99.90
18888;DHT22;9576;47.792;9.628;2023-02-28T20:15:22;-1.30;99.90
18888;DHT22;9576;47.792;9.628;2023-02-28T20:18:24;-1.30;99.90